Terminal Aerodrome Forecast
Issued by NWS

Home | Current Version | Previous Version | Graphics & Text | Print | Product List | Glossary On
Versions: 1 2 3 4 5 6 7 8 9 10 11 12 13 14 15 16 17 18 19 20 21 22 23 24
178
FTUS43 KTOP 300520
TAFFOE
TAF
KFOE 300520Z 3006/0106 07011KT 5SM -SHRA VCTS BKN006 OVC012CB
      TEMPO 3006/3010 6SM BR
     FM301300 15009KT 5SM BR SCT008 BKN015
     FM301600 22011KT P6SM BKN015 OVC020
     FM302000 25009KT P6SM SCT040 BKN060=

USA.gov is the U.S. government's official web portal to all federal, state and local government web resources and services.